Portada
METAR-TAF:

METAR-TAF

Aeroports :

Waterford, Irlanda

latitud: 52-11-14N, longitud: 7-05-13W, altitud: 36 m

Observació

L'informe es va fer fa 35 minuts, a les 19:00 UTC
Vent 5 kt del Est/Nord-Est
Temperatura 5°C
Humitat 87%
Pressió 1034 hPa
Visibilitat 10 km o més
sense núvols per sota de 1500 mi sense presència de cumulonimbus.

METAR: EIWF 281900Z 07005KT CAVOK 05/03 Q1034

Hora: 19:35 (19:35 UTC)

Pronòstic

L'informe es va fer fa 2 hores i 35 minuts, a les 17:00 UTC
Pronòstic vàlid del 28 a les 18 UTC al 01 a les 03 UTC
Vent 7 kt del Est
Visibilitat 10 km o més
Escasses núvols a una alçada de 2000 ft
Probabilitat 30% :
Temporalment
l' 28 a les 22 UTC al 01 a les 01 UTC
Visibilitat: 4000 m
boirina
Temporalment
l' 01 a les 01 UTC al 01 a les 03 UTC
Visibilitat: 3000 m
Núvols disperses a una alçada de 500 ft
boirina

TAF: EIWF 281700Z 2818/0103 10007KT 9999 FEW020 PROB30 TEMPO 2822/0101 4000 BR TEMPO 0101/0103 3000 BR SCT005

Observacions i pronòstics meteorològics de més de 4000 aeroports (METAR i TAF).

Les estacions disponibles són els punts grocs i vermells al mapa.

Posi el ratolí al punt desitjat per veure el nom de l'estació.

Feu clic per veure les observacions i els pronòstics meteorològics.

Per canviar el mapa: feu clic els botons verds amb una creu de color negre per apropar; al botó verd amb un guió per allunyar la imatge; o en les fletxes verdes per a mapes adjacents.


METAR-TAF: